sensor_id;sensor_type;location;lat;lon;timestamp;temperature;humidity
26745;DHT22;14342;50.960;13.880;2023-06-26T00:00:52;20.50;99.90
26745;DHT22;14342;50.960;13.880;2023-06-26T00:01:54;20.50;99.90
26745;DHT22;14342;50.960;13.880;2023-06-26T00:02:54;20.40;99.90
26745;DHT22;14342;50.960;13.880;2023-06-26T00:03:56;20.40;99.90
26745;DHT22;14342;50.960;13.880;2023-06-26T00:04:56;20.30;99.90
26745;DHT22;14342;50.960;13.880;2023-06-26T00:05:58;20.30;99.90
26745;DHT22;14342;50.960;13.880;2023-06-26T00:07:00;20.20;99.90
26745;DHT22;14342;50.960;13.880;2023-06-26T00:08:02;20.20;99.90
26745;DHT22;14342;50.960;13.880;2023-06-26T00:09:03;20.10;99.90
26745;DHT22;14342;50.960;13.880;2023-06-26T00:10:04;20.10;99.90
26745;DHT22;14342;50.960;13.880;2023-06-26T00:11:05;20.10;99.90
26745;DHT22;14342;50.960;13.880;2023-06-26T00:12:08;20.10;99.90
26745;DHT22;14342;50.960;13.880;2023-06-26T00:13:12;20.10;99.90
26745;DHT22;14342;50.960;13.880;2023-06-26T00:14:13;20.10;99.90
26745;DHT22;14342;50.960;13.880;2023-06-26T00:15:14;20.10;99.90
26745;DHT22;14342;50.960;13.880;2023-06-26T00:16:15;20.00;99.90
26745;DHT22;14342;50.960;13.880;2023-06-26T00:17:16;20.00;99.90
26745;DHT22;14342;50.960;13.880;2023-06-26T00:18:17;20.00;99.90
26745;DHT22;14342;50.960;13.880;2023-06-26T00:19:18;20.00;99.90
26745;DHT22;14342;50.960;13.880;2023-06-26T00:20:20;19.90;99.90
26745;DHT22;14342;50.960;13.880;2023-06-26T00:21:20;19.90;99.90
26745;DHT22;14342;50.960;13.880;2023-06-26T00:22:22;20.10;99.90
26745;DHT22;14342;50.960;13.880;2023-06-26T00:23:22;19.80;99.90
26745;DHT22;14342;50.960;13.880;2023-06-26T00:24:24;19.80;99.90
26745;DHT22;14342;50.960;13.880;2023-06-26T00:25:24;19.80;99.90
26745;DHT22;14342;50.960;13.880;2023-06-26T00:26:26;19.80;99.90
26745;DHT22;14342;50.960;13.880;2023-06-26T00:27:28;19.80;99.90
26745;DHT22;14342;50.960;13.880;2023-06-26T00:28:30;19.80;99.90
26745;DHT22;14342;50.960;13.880;2023-06-26T00:29:30;19.90;99.90
26745;DHT22;14342;50.960;13.880;2023-06-26T00:30:32;19.90;99.90
26745;DHT22;14342;50.960;13.880;2023-06-26T00:31:32;19.80;99.90
26745;DHT22;14342;50.960;13.880;2023-06-26T00:32:35;19.90;99.90
26745;DHT22;14342;50.960;13.880;2023-06-26T00:33:36;19.80;99.90
26745;DHT22;14342;50.960;13.880;2023-06-26T00:34:37;19.80;99.90
26745;DHT22;14342;50.960;13.880;2023-06-26T00:35:38;19.80;99.90
26745;DHT22;14342;50.960;13.880;2023-06-26T00:36:39;19.80;99.90
26745;DHT22;14342;50.960;13.880;2023-06-26T00:37:43;19.70;99.90
26745;DHT22;14342;50.960;13.880;2023-06-26T00:38:45;19.80;99.90
26745;DHT22;14342;50.960;13.880;2023-06-26T00:39:45;19.80;99.90
26745;DHT22;14342;50.960;13.880;2023-06-26T00:40:47;19.80;99.90
26745;DHT22;14342;50.960;13.880;2023-06-26T00:41:47;19.80;99.90
26745;DHT22;14342;50.960;13.880;2023-06-26T00:42:50;19.70;99.90
26745;DHT22;14342;50.960;13.880;2023-06-26T00:43:51;19.70;99.90
26745;DHT22;14342;50.960;13.880;2023-06-26T00:44:52;19.70;99.90
26745;DHT22;14342;50.960;13.880;2023-06-26T00:45:53;19.70;99.90
26745;DHT22;14342;50.960;13.880;2023-06-26T00:46:54;19.70;99.90
26745;DHT22;14342;50.960;13.880;2023-06-26T00:47:55;19.70;99.90
26745;DHT22;14342;50.960;13.880;2023-06-26T00:48:57;19.70;99.90
26745;DHT22;14342;50.960;13.880;2023-06-26T00:49:58;19.70;99.90
26745;DHT22;14342;50.960;13.880;2023-06-26T00:51:00;19.80;99.90
26745;DHT22;14342;50.960;13.880;2023-06-26T00:52:01;19.80;99.90
26745;DHT22;14342;50.960;13.880;2023-06-26T00:53:03;19.80;99.90
26745;DHT22;14342;50.960;13.880;2023-06-26T00:54:04;19.80;99.90
26745;DHT22;14342;50.960;13.880;2023-06-26T00:55:06;19.80;99.90
26745;DHT22;14342;50.960;13.880;2023-06-26T00:56:07;19.80;99.90
26745;DHT22;14342;50.960;13.880;2023-06-26T00:57:09;19.90;99.90
26745;DHT22;14342;50.960;13.880;2023-06-26T00:58:11;19.90;99.90
26745;DHT22;14342;50.960;13.880;2023-06-26T00:59:12;19.90;99.90
26745;DHT22;14342;50.960;13.880;2023-06-26T01:00:14;19.90;99.90
26745;DHT22;14342;50.960;13.880;2023-06-26T01:01:15;19.90;99.90
26745;DHT22;14342;50.960;13.880;2023-06-26T01:02:17;19.90;99.90
26745;DHT22;14342;50.960;13.880;2023-06-26T01:03:20;19.80;99.90
26745;DHT22;14342;50.960;13.880;2023-06-26T01:04:21;19.80;99.90
26745;DHT22;14342;50.960;13.880;2023-06-26T01:05:27;19.80;99.90
26745;DHT22;14342;50.960;13.880;2023-06-26T01:06:28;19.70;99.90
26745;DHT22;14342;50.960;13.880;2023-06-26T01:07:32;19.70;99.90
26745;DHT22;14342;50.960;13.880;2023-06-26T01:08:34;19.70;99.90
26745;DHT22;14342;50.960;13.880;2023-06-26T01:09:39;19.70;99.90
26745;DHT22;14342;50.960;13.880;2023-06-26T01:10:40;19.70;99.90
26745;DHT22;14342;50.960;13.880;2023-06-26T01:11:41;19.80;99.90
26745;DHT22;14342;50.960;13.880;2023-06-26T01:12:42;19.70;99.90
26745;DHT22;14342;50.960;13.880;2023-06-26T01:13:45;19.70;99.90
26745;DHT22;14342;50.960;13.880;2023-06-26T01:14:46;19.70;99.90
26745;DHT22;14342;50.960;13.880;2023-06-26T01:15:47;19.70;99.90
26745;DHT22;14342;50.960;13.880;2023-06-26T01:16:48;19.70;99.90
26745;DHT22;14342;50.960;13.880;2023-06-26T01:17:50;19.70;99.90
26745;DHT22;14342;50.960;13.880;2023-06-26T01:18:51;19.70;99.90
26745;DHT22;14342;50.960;13.880;2023-06-26T01:19:53;19.70;99.90
26745;DHT22;14342;50.960;13.880;2023-06-26T01:20:54;19.70;99.90
26745;DHT22;14342;50.960;13.880;2023-06-26T01:22:02;19.70;99.90
26745;DHT22;14342;50.960;13.880;2023-06-26T01:23:05;19.70;99.90
26745;DHT22;14342;50.960;13.880;2023-06-26T01:24:09;19.70;99.90
26745;DHT22;14342;50.960;13.880;2023-06-26T01:25:17;19.70;99.90
26745;DHT22;14342;50.960;13.880;2023-06-26T01:26:23;19.70;99.90
26745;DHT22;14342;50.960;13.880;2023-06-26T01:27:24;19.60;99.90
26745;DHT22;14342;50.960;13.880;2023-06-26T01:28:26;19.60;99.90
26745;DHT22;14342;50.960;13.880;2023-06-26T01:29:28;19.60;99.90
26745;DHT22;14342;50.960;13.880;2023-06-26T01:30:30;19.60;99.90
26745;DHT22;14342;50.960;13.880;2023-06-26T01:31:32;19.60;99.90
26745;DHT22;14342;50.960;13.880;2023-06-26T01:32:33;19.60;99.90
26745;DHT22;14342;50.960;13.880;2023-06-26T01:33:35;19.60;99.90
26745;DHT22;14342;50.960;13.880;2023-06-26T01:34:36;19.60;99.90
26745;DHT22;14342;50.960;13.880;2023-06-26T01:35:38;19.60;99.90
26745;DHT22;14342;50.960;13.880;2023-06-26T01:36:39;19.60;99.90
26745;DHT22;14342;50.960;13.880;2023-06-26T01:37:40;19.60;99.90
26745;DHT22;14342;50.960;13.880;2023-06-26T01:38:41;19.60;99.90
26745;DHT22;14342;50.960;13.880;2023-06-26T01:39:42;19.60;99.90
26745;DHT22;14342;50.960;13.880;2023-06-26T01:40:43;19.60;99.90
26745;DHT22;14342;50.960;13.880;2023-06-26T01:41:46;19.60;99.90
26745;DHT22;14342;50.960;13.880;2023-06-26T01:42:47;19.60;99.90
26745;DHT22;14342;50.960;13.880;2023-06-26T01:43:57;19.60;99.90
26745;DHT22;14342;50.960;13.880;2023-06-26T01:45:02;19.60;99.90
26745;DHT22;14342;50.960;13.880;2023-06-26T01:46:06;19.60;99.90
26745;DHT22;14342;50.960;13.880;2023-06-26T01:47:07;19.60;99.90
26745;DHT22;14342;50.960;13.880;2023-06-26T01:48:11;19.60;99.90
26745;DHT22;14342;50.960;13.880;2023-06-26T01:49:14;19.60;99.90
26745;DHT22;14342;50.960;13.880;2023-06-26T01:50:17;19.60;99.90
26745;DHT22;14342;50.960;13.880;2023-06-26T01:51:19;19.60;99.90
26745;DHT22;14342;50.960;13.880;2023-06-26T01:52:24;19.80;99.90
26745;DHT22;14342;50.960;13.880;2023-06-26T01:53:27;19.10;99.90
26745;DHT22;14342;50.960;13.880;2023-06-26T01:54:36;19.50;99.90
26745;DHT22;14342;50.960;13.880;2023-06-26T01:55:40;19.40;99.90
26745;DHT22;14342;50.960;13.880;2023-06-26T01:56:43;19.30;99.90
26745;DHT22;14342;50.960;13.880;2023-06-26T01:57:46;19.20;99.90
26745;DHT22;14342;50.960;13.880;2023-06-26T01:58:48;19.20;99.90
26745;DHT22;14342;50.960;13.880;2023-06-26T01:59:51;19.20;99.90
26745;DHT22;14342;50.960;13.880;2023-06-26T02:00:52;19.10;99.90
26745;DHT22;14342;50.960;13.880;2023-06-26T02:01:53;19.10;99.90
26745;DHT22;14342;50.960;13.880;2023-06-26T02:02:58;19.10;99.90
26745;DHT22;14342;50.960;13.880;2023-06-26T02:03:58;19.20;99.90
26745;DHT22;14342;50.960;13.880;2023-06-26T02:05:00;19.10;99.90
26745;DHT22;14342;50.960;13.880;2023-06-26T02:06:00;19.10;99.90
26745;DHT22;14342;50.960;13.880;2023-06-26T02:07:02;19.10;99.90
26745;DHT22;14342;50.960;13.880;2023-06-26T02:08:03;19.20;99.90
26745;DHT22;14342;50.960;13.880;2023-06-26T02:09:04;19.20;99.90
26745;DHT22;14342;50.960;13.880;2023-06-26T02:10:05;19.30;99.90
26745;DHT22;14342;50.960;13.880;2023-06-26T02:11:07;19.20;99.90
26745;DHT22;14342;50.960;13.880;2023-06-26T02:12:08;19.10;99.90
26745;DHT22;14342;50.960;13.880;2023-06-26T02:13:11;19.10;99.90
26745;DHT22;14342;50.960;13.880;2023-06-26T02:14:11;19.10;99.90
26745;DHT22;14342;50.960;13.880;2023-06-26T02:15:13;19.10;99.90
26745;DHT22;14342;50.960;13.880;2023-06-26T02:16:13;19.40;99.90
26745;DHT22;14342;50.960;13.880;2023-06-26T02:17:15;19.00;99.90
26745;DHT22;14342;50.960;13.880;2023-06-26T02:18:15;19.00;99.90
26745;DHT22;14342;50.960;13.880;2023-06-26T02:19:17;19.00;99.90
26745;DHT22;14342;50.960;13.880;2023-06-26T02:20:21;19.00;99.90
26745;DHT22;14342;50.960;13.880;2023-06-26T02:21:23;19.00;99.90
26745;DHT22;14342;50.960;13.880;2023-06-26T02:22:24;19.00;99.90
26745;DHT22;14342;50.960;13.880;2023-06-26T02:23:25;19.00;99.90
26745;DHT22;14342;50.960;13.880;2023-06-26T02:24:26;19.10;99.90
26745;DHT22;14342;50.960;13.880;2023-06-26T02:25:30;19.10;99.90
26745;DHT22;14342;50.960;13.880;2023-06-26T02:26:30;19.10;99.90
26745;DHT22;14342;50.960;13.880;2023-06-26T02:27:32;19.20;99.90
26745;DHT22;14342;50.960;13.880;2023-06-26T02:28:34;19.20;99.90
26745;DHT22;14342;50.960;13.880;2023-06-26T02:29:35;19.20;99.90
26745;DHT22;14342;50.960;13.880;2023-06-26T02:30:36;19.20;99.90
26745;DHT22;14342;50.960;13.880;2023-06-26T02:31:38;19.20;99.90
26745;DHT22;14342;50.960;13.880;2023-06-26T02:32:38;19.20;99.90
26745;DHT22;14342;50.960;13.880;2023-06-26T02:33:41;19.20;99.90
26745;DHT22;14342;50.960;13.880;2023-06-26T02:34:41;19.20;99.90
26745;DHT22;14342;50.960;13.880;2023-06-26T02:35:43;19.20;99.90
26745;DHT22;14342;50.960;13.880;2023-06-26T02:36:43;19.60;99.90
26745;DHT22;14342;50.960;13.880;2023-06-26T02:37:45;19.30;99.90
26745;DHT22;14342;50.960;13.880;2023-06-26T02:38:45;19.30;99.90
26745;DHT22;14342;50.960;13.880;2023-06-26T02:39:47;19.30;99.90
26745;DHT22;14342;50.960;13.880;2023-06-26T02:40:48;19.30;99.90
26745;DHT22;14342;50.960;13.880;2023-06-26T02:41:49;19.20;99.90
26745;DHT22;14342;50.960;13.880;2023-06-26T02:42:50;19.20;99.90
26745;DHT22;14342;50.960;13.880;2023-06-26T02:43:52;19.20;99.90
26745;DHT22;14342;50.960;13.880;2023-06-26T02:44:53;19.20;99.90
26745;DHT22;14342;50.960;13.880;2023-06-26T02:45:54;19.20;99.90
26745;DHT22;14342;50.960;13.880;2023-06-26T02:46:55;19.20;99.90
26745;DHT22;14342;50.960;13.880;2023-06-26T02:47:56;19.20;99.90
26745;DHT22;14342;50.960;13.880;2023-06-26T02:48:57;19.20;99.90
26745;DHT22;14342;50.960;13.880;2023-06-26T02:49:58;19.20;99.90
26745;DHT22;14342;50.960;13.880;2023-06-26T02:50:59;19.20;99.90
26745;DHT22;14342;50.960;13.880;2023-06-26T02:52:00;19.10;99.90
26745;DHT22;14342;50.960;13.880;2023-06-26T02:53:01;19.10;99.90
26745;DHT22;14342;50.960;13.880;2023-06-26T02:54:03;19.00;99.90
26745;DHT22;14342;50.960;13.880;2023-06-26T02:55:04;18.90;99.90
26745;DHT22;14342;50.960;13.880;2023-06-26T02:56:06;18.80;99.90
26745;DHT22;14342;50.960;13.880;2023-06-26T02:57:06;18.80;99.90
26745;DHT22;14342;50.960;13.880;2023-06-26T02:58:08;18.70;99.90
26745;DHT22;14342;50.960;13.880;2023-06-26T02:59:10;18.70;99.90
26745;DHT22;14342;50.960;13.880;2023-06-26T03:00:12;18.60;99.90
26745;DHT22;14342;50.960;13.880;2023-06-26T03:01:15;18.60;99.90
26745;DHT22;14342;50.960;13.880;2023-06-26T03:02:16;18.60;99.90
26745;DHT22;14342;50.960;13.880;2023-06-26T03:03:17;18.50;99.90
26745;DHT22;14342;50.960;13.880;2023-06-26T03:04:18;18.50;99.90
26745;DHT22;14342;50.960;13.880;2023-06-26T03:05:21;18.50;99.90
26745;DHT22;14342;50.960;13.880;2023-06-26T03:06:24;18.50;99.90
26745;DHT22;14342;50.960;13.880;2023-06-26T03:07:25;18.50;99.90
26745;DHT22;14342;50.960;13.880;2023-06-26T03:08:26;18.60;99.90
26745;DHT22;14342;50.960;13.880;2023-06-26T03:09:27;18.90;99.90
26745;DHT22;14342;50.960;13.880;2023-06-26T03:10:28;18.60;99.90
26745;DHT22;14342;50.960;13.880;2023-06-26T03:11:29;18.70;99.90
26745;DHT22;14342;50.960;13.880;2023-06-26T03:12:31;18.80;99.90
26745;DHT22;14342;50.960;13.880;2023-06-26T03:13:32;18.80;99.90
26745;DHT22;14342;50.960;13.880;2023-06-26T03:14:35;18.80;99.90
26745;DHT22;14342;50.960;13.880;2023-06-26T03:15:35;18.80;99.90
26745;DHT22;14342;50.960;13.880;2023-06-26T03:16:37;18.70;99.90
26745;DHT22;14342;50.960;13.880;2023-06-26T03:17:38;18.70;99.90
26745;DHT22;14342;50.960;13.880;2023-06-26T03:18:39;18.60;99.90
26745;DHT22;14342;50.960;13.880;2023-06-26T03:19:40;18.50;99.90
26745;DHT22;14342;50.960;13.880;2023-06-26T03:20:41;18.50;99.90
26745;DHT22;14342;50.960;13.880;2023-06-26T03:21:42;18.40;99.90
26745;DHT22;14342;50.960;13.880;2023-06-26T03:22:43;18.30;99.90
26745;DHT22;14342;50.960;13.880;2023-06-26T03:23:44;18.40;99.90
26745;DHT22;14342;50.960;13.880;2023-06-26T03:24:45;18.30;99.90
26745;DHT22;14342;50.960;13.880;2023-06-26T03:25:46;18.30;99.90
26745;DHT22;14342;50.960;13.880;2023-06-26T03:26:47;18.20;99.90
26745;DHT22;14342;50.960;13.880;2023-06-26T03:27:48;18.20;99.90
26745;DHT22;14342;50.960;13.880;2023-06-26T03:28:49;18.10;99.90
26745;DHT22;14342;50.960;13.880;2023-06-26T03:29:51;18.20;99.90
26745;DHT22;14342;50.960;13.880;2023-06-26T03:30:53;18.20;99.90
26745;DHT22;14342;50.960;13.880;2023-06-26T03:31:53;18.20;99.90
26745;DHT22;14342;50.960;13.880;2023-06-26T03:32:55;18.20;99.90
26745;DHT22;14342;50.960;13.880;2023-06-26T03:33:56;18.20;99.90
26745;DHT22;14342;50.960;13.880;2023-06-26T03:34:58;18.20;99.90
26745;DHT22;14342;50.960;13.880;2023-06-26T03:35:58;18.30;99.90
26745;DHT22;14342;50.960;13.880;2023-06-26T03:37:00;18.30;99.90
26745;DHT22;14342;50.960;13.880;2023-06-26T03:38:03;18.40;99.90
26745;DHT22;14342;50.960;13.880;2023-06-26T03:39:03;18.40;99.90
26745;DHT22;14342;50.960;13.880;2023-06-26T03:40:05;18.50;99.90
26745;DHT22;14342;50.960;13.880;2023-06-26T03:41:06;18.50;99.90
26745;DHT22;14342;50.960;13.880;2023-06-26T03:42:08;18.50;99.90
26745;DHT22;14342;50.960;13.880;2023-06-26T03:43:08;18.50;99.90
26745;DHT22;14342;50.960;13.880;2023-06-26T03:44:10;18.50;99.90
26745;DHT22;14342;50.960;13.880;2023-06-26T03:45:12;18.50;99.90
26745;DHT22;14342;50.960;13.880;2023-06-26T03:46:13;18.60;99.90
26745;DHT22;14342;50.960;13.880;2023-06-26T03:47:14;18.60;99.90
26745;DHT22;14342;50.960;13.880;2023-06-26T03:48:15;18.60;99.90
26745;DHT22;14342;50.960;13.880;2023-06-26T03:49:17;18.70;99.90
26745;DHT22;14342;50.960;13.880;2023-06-26T03:50:18;18.70;99.90
26745;DHT22;14342;50.960;13.880;2023-06-26T03:51:20;18.70;99.90
26745;DHT22;14342;50.960;13.880;2023-06-26T03:52:20;18.80;99.90
26745;DHT22;14342;50.960;13.880;2023-06-26T03:53:22;18.80;99.90
26745;DHT22;14342;50.960;13.880;2023-06-26T03:54:22;18.90;99.90
26745;DHT22;14342;50.960;13.880;2023-06-26T03:55:24;18.80;99.90
26745;DHT22;14342;50.960;13.880;2023-06-26T03:56:24;18.90;99.90
26745;DHT22;14342;50.960;13.880;2023-06-26T03:57:26;18.90;99.90
26745;DHT22;14342;50.960;13.880;2023-06-26T03:58:26;18.90;99.90
26745;DHT22;14342;50.960;13.880;2023-06-26T03:59:28;18.80;99.90
26745;DHT22;14342;50.960;13.880;2023-06-26T04:00:30;18.80;99.90
26745;DHT22;14342;50.960;13.880;2023-06-26T04:01:31;18.80;99.90
26745;DHT22;14342;50.960;13.880;2023-06-26T04:02:32;18.90;99.90
26745;DHT22;14342;50.960;13.880;2023-06-26T04:03:34;18.90;99.90
26745;DHT22;14342;50.960;13.880;2023-06-26T04:04:34;18.90;99.90
26745;DHT22;14342;50.960;13.880;2023-06-26T04:05:36;18.80;99.90
26745;DHT22;14342;50.960;13.880;2023-06-26T04:06:36;18.80;99.90
26745;DHT22;14342;50.960;13.880;2023-06-26T04:07:38;18.80;99.90
26745;DHT22;14342;50.960;13.880;2023-06-26T04:08:39;18.80;99.90
26745;DHT22;14342;50.960;13.880;2023-06-26T04:09:40;18.80;99.90
26745;DHT22;14342;50.960;13.880;2023-06-26T04:10:41;18.70;99.90
26745;DHT22;14342;50.960;13.880;2023-06-26T04:11:42;18.60;99.90
26745;DHT22;14342;50.960;13.880;2023-06-26T04:12:43;18.60;99.90
26745;DHT22;14342;50.960;13.880;2023-06-26T04:13:44;18.60;99.90
26745;DHT22;14342;50.960;13.880;2023-06-26T04:14:45;18.60;99.90
26745;DHT22;14342;50.960;13.880;2023-06-26T04:15:48;18.60;99.90
26745;DHT22;14342;50.960;13.880;2023-06-26T04:16:48;18.70;99.90
26745;DHT22;14342;50.960;13.880;2023-06-26T04:17:50;18.70;99.90
26745;DHT22;14342;50.960;13.880;2023-06-26T04:18:50;18.80;99.90
26745;DHT22;14342;50.960;13.880;2023-06-26T04:19:52;18.80;99.90
26745;DHT22;14342;50.960;13.880;2023-06-26T04:21:06;18.90;99.90
26745;DHT22;14342;50.960;13.880;2023-06-26T04:22:08;18.90;99.90
26745;DHT22;14342;50.960;13.880;2023-06-26T04:23:08;19.00;99.90
26745;DHT22;14342;50.960;13.880;2023-06-26T04:24:10;19.00;99.90
26745;DHT22;14342;50.960;13.880;2023-06-26T04:25:10;18.80;99.90
26745;DHT22;14342;50.960;13.880;2023-06-26T04:26:13;18.70;99.90
26745;DHT22;14342;50.960;13.880;2023-06-26T04:27:14;18.80;99.90
26745;DHT22;14342;50.960;13.880;2023-06-26T04:28:16;18.80;99.90
26745;DHT22;14342;50.960;13.880;2023-06-26T04:29:17;18.80;99.90
26745;DHT22;14342;50.960;13.880;2023-06-26T04:30:18;18.90;99.90
26745;DHT22;14342;50.960;13.880;2023-06-26T04:31:20;18.90;99.90
26745;DHT22;14342;50.960;13.880;2023-06-26T04:32:22;19.00;99.90
26745;DHT22;14342;50.960;13.880;2023-06-26T04:33:24;19.00;99.90
26745;DHT22;14342;50.960;13.880;2023-06-26T04:34:26;19.00;99.90
26745;DHT22;14342;50.960;13.880;2023-06-26T04:35:26;19.00;99.90
26745;DHT22;14342;50.960;13.880;2023-06-26T04:36:28;19.00;99.90
26745;DHT22;14342;50.960;13.880;2023-06-26T04:37:28;19.10;99.90
26745;DHT22;14342;50.960;13.880;2023-06-26T04:38:30;19.10;99.90
26745;DHT22;14342;50.960;13.880;2023-06-26T04:39:31;19.20;99.90
26745;DHT22;14342;50.960;13.880;2023-06-26T04:40:32;19.20;99.90
26745;DHT22;14342;50.960;13.880;2023-06-26T04:41:33;19.20;99.90
26745;DHT22;14342;50.960;13.880;2023-06-26T04:42:35;19.10;99.90
26745;DHT22;14342;50.960;13.880;2023-06-26T04:43:35;19.10;99.90
26745;DHT22;14342;50.960;13.880;2023-06-26T04:44:37;19.10;99.90
26745;DHT22;14342;50.960;13.880;2023-06-26T04:45:38;19.10;99.90
26745;DHT22;14342;50.960;13.880;2023-06-26T04:46:40;19.10;99.90
26745;DHT22;14342;50.960;13.880;2023-06-26T04:47:42;19.20;99.90
26745;DHT22;14342;50.960;13.880;2023-06-26T04:48:43;19.20;99.90
26745;DHT22;14342;50.960;13.880;2023-06-26T04:49:45;19.10;99.90
26745;DHT22;14342;50.960;13.880;2023-06-26T04:50:46;19.20;99.90
26745;DHT22;14342;50.960;13.880;2023-06-26T04:51:53;19.20;99.90
26745;DHT22;14342;50.960;13.880;2023-06-26T04:52:54;19.30;99.90
26745;DHT22;14342;50.960;13.880;2023-06-26T04:53:55;19.40;99.90
26745;DHT22;14342;50.960;13.880;2023-06-26T04:54:56;19.40;99.90
26745;DHT22;14342;50.960;13.880;2023-06-26T04:55:57;19.50;99.90
26745;DHT22;14342;50.960;13.880;2023-06-26T04:56:58;19.50;99.90
26745;DHT22;14342;50.960;13.880;2023-06-26T04:58:00;19.50;99.90
26745;DHT22;14342;50.960;13.880;2023-06-26T04:59:01;19.50;99.90
26745;DHT22;14342;50.960;13.880;2023-06-26T05:00:02;19.60;99.90
26745;DHT22;14342;50.960;13.880;2023-06-26T05:01:07;19.60;99.90
26745;DHT22;14342;50.960;13.880;2023-06-26T05:02:09;19.60;99.90
26745;DHT22;14342;50.960;13.880;2023-06-26T05:03:13;19.60;99.90
26745;DHT22;14342;50.960;13.880;2023-06-26T05:04:14;19.70;99.90
26745;DHT22;14342;50.960;13.880;2023-06-26T05:05:15;19.70;99.90
26745;DHT22;14342;50.960;13.880;2023-06-26T05:06:16;19.70;99.90
26745;DHT22;14342;50.960;13.880;2023-06-26T05:07:17;19.70;99.90
26745;DHT22;14342;50.960;13.880;2023-06-26T05:08:21;19.80;99.90
26745;DHT22;14342;50.960;13.880;2023-06-26T05:09:22;19.80;99.90
26745;DHT22;14342;50.960;13.880;2023-06-26T05:10:23;19.90;99.90
26745;DHT22;14342;50.960;13.880;2023-06-26T05:11:24;19.90;99.90
26745;DHT22;14342;50.960;13.880;2023-06-26T05:12:26;19.90;99.90
26745;DHT22;14342;50.960;13.880;2023-06-26T05:13:26;19.90;99.90
26745;DHT22;14342;50.960;13.880;2023-06-26T05:14:28;20.00;99.90
26745;DHT22;14342;50.960;13.880;2023-06-26T05:15:28;19.90;99.90
26745;DHT22;14342;50.960;13.880;2023-06-26T05:16:30;20.00;99.90
26745;DHT22;14342;50.960;13.880;2023-06-26T05:17:32;19.90;99.90
26745;DHT22;14342;50.960;13.880;2023-06-26T05:18:33;20.00;99.90
26745;DHT22;14342;50.960;13.880;2023-06-26T05:19:34;20.10;99.90
26745;DHT22;14342;50.960;13.880;2023-06-26T05:20:36;20.30;99.90
26745;DHT22;14342;50.960;13.880;2023-06-26T05:21:36;20.10;99.90
26745;DHT22;14342;50.960;13.880;2023-06-26T05:22:38;20.10;99.90
26745;DHT22;14342;50.960;13.880;2023-06-26T05:23:39;20.10;99.90
26745;DHT22;14342;50.960;13.880;2023-06-26T05:24:41;20.10;99.90
26745;DHT22;14342;50.960;13.880;2023-06-26T05:25:42;20.10;99.90
26745;DHT22;14342;50.960;13.880;2023-06-26T05:26:44;20.10;99.90
26745;DHT22;14342;50.960;13.880;2023-06-26T05:27:45;20.20;99.90
26745;DHT22;14342;50.960;13.880;2023-06-26T05:28:47;20.20;99.90
26745;DHT22;14342;50.960;13.880;2023-06-26T05:29:49;20.20;99.90
26745;DHT22;14342;50.960;13.880;2023-06-26T05:30:50;20.20;99.90
26745;DHT22;14342;50.960;13.880;2023-06-26T05:31:52;20.20;99.90
26745;DHT22;14342;50.960;13.880;2023-06-26T05:32:55;20.40;99.90
26745;DHT22;14342;50.960;13.880;2023-06-26T05:33:56;20.40;99.90
26745;DHT22;14342;50.960;13.880;2023-06-26T05:34:59;20.30;99.90
26745;DHT22;14342;50.960;13.880;2023-06-26T05:36:02;20.30;99.90
26745;DHT22;14342;50.960;13.880;2023-06-26T05:37:05;20.30;99.90
26745;DHT22;14342;50.960;13.880;2023-06-26T05:38:06;20.40;99.90
26745;DHT22;14342;50.960;13.880;2023-06-26T05:39:08;20.40;99.90
26745;DHT22;14342;50.960;13.880;2023-06-26T05:40:09;20.50;99.90
26745;DHT22;14342;50.960;13.880;2023-06-26T05:41:10;20.30;99.90
26745;DHT22;14342;50.960;13.880;2023-06-26T05:42:12;20.40;99.90
26745;DHT22;14342;50.960;13.880;2023-06-26T05:43:13;20.40;99.90
26745;DHT22;14342;50.960;13.880;2023-06-26T05:44:15;20.50;99.90
26745;DHT22;14342;50.960;13.880;2023-06-26T05:45:18;20.60;99.90
26745;DHT22;14342;50.960;13.880;2023-06-26T05:46:19;20.60;99.90
26745;DHT22;14342;50.960;13.880;2023-06-26T05:47:20;20.60;99.90
26745;DHT22;14342;50.960;13.880;2023-06-26T05:48:23;20.80;99.90
26745;DHT22;14342;50.960;13.880;2023-06-26T05:49:24;20.70;99.90
26745;DHT22;14342;50.960;13.880;2023-06-26T05:50:25;20.70;99.90
26745;DHT22;14342;50.960;13.880;2023-06-26T05:51:27;20.70;99.90
26745;DHT22;14342;50.960;13.880;2023-06-26T05:52:28;20.70;99.90
26745;DHT22;14342;50.960;13.880;2023-06-26T05:53:30;20.80;99.90
26745;DHT22;14342;50.960;13.880;2023-06-26T05:54:31;20.90;99.90
26745;DHT22;14342;50.960;13.880;2023-06-26T05:55:33;21.00;99.90
26745;DHT22;14342;50.960;13.880;2023-06-26T05:56:33;21.00;99.90
26745;DHT22;14342;50.960;13.880;2023-06-26T05:57:35;21.00;99.90
26745;DHT22;14342;50.960;13.880;2023-06-26T05:58:37;21.00;99.90
26745;DHT22;14342;50.960;13.880;2023-06-26T05:59:39;21.10;99.90
26745;DHT22;14342;50.960;13.880;2023-06-26T06:00:40;21.10;99.90
26745;DHT22;14342;50.960;13.880;2023-06-26T06:01:42;21.20;99.90
26745;DHT22;14342;50.960;13.880;2023-06-26T06:02:42;21.10;99.90
26745;DHT22;14342;50.960;13.880;2023-06-26T06:03:45;21.20;99.90
26745;DHT22;14342;50.960;13.880;2023-06-26T06:04:46;21.30;99.90
26745;DHT22;14342;50.960;13.880;2023-06-26T06:05:48;21.40;99.90
26745;DHT22;14342;50.960;13.880;2023-06-26T06:06:49;21.50;99.90
26745;DHT22;14342;50.960;13.880;2023-06-26T06:07:50;21.50;99.90
26745;DHT22;14342;50.960;13.880;2023-06-26T06:08:51;21.60;99.90
26745;DHT22;14342;50.960;13.880;2023-06-26T06:09:53;21.70;99.90
26745;DHT22;14342;50.960;13.880;2023-06-26T06:10:53;21.70;99.90
26745;DHT22;14342;50.960;13.880;2023-06-26T06:11:55;21.80;99.90
26745;DHT22;14342;50.960;13.880;2023-06-26T06:12:56;21.80;99.90
26745;DHT22;14342;50.960;13.880;2023-06-26T06:13:57;21.80;99.90
26745;DHT22;14342;50.960;13.880;2023-06-26T06:14:59;21.90;99.90
26745;DHT22;14342;50.960;13.880;2023-06-26T06:16:01;22.00;99.90
26745;DHT22;14342;50.960;13.880;2023-06-26T06:17:02;22.10;99.90
26745;DHT22;14342;50.960;13.880;2023-06-26T06:18:06;22.20;99.90
26745;DHT22;14342;50.960;13.880;2023-06-26T06:19:08;22.10;99.90
26745;DHT22;14342;50.960;13.880;2023-06-26T06:20:11;22.20;99.90
26745;DHT22;14342;50.960;13.880;2023-06-26T06:21:12;22.40;99.90
26745;DHT22;14342;50.960;13.880;2023-06-26T06:22:13;22.50;99.90
26745;DHT22;14342;50.960;13.880;2023-06-26T06:23:14;22.50;99.90